createdAt,value
2022-11-18T00:04:20.440Z,14
2022-11-18T00:09:20.503Z,14
2022-11-18T00:14:20.235Z,14
2022-11-18T00:19:20.472Z,14
2022-11-18T00:24:20.796Z,14
2022-11-18T00:29:20.724Z,13
2022-11-18T00:34:20.541Z,13
2022-11-18T00:39:21.051Z,13
2022-11-18T00:44:20.093Z,13
2022-11-18T00:49:20.429Z,13
2022-11-18T00:54:20.511Z,13
2022-11-18T00:59:20.519Z,13
2022-11-18T01:04:20.289Z,13
2022-11-18T01:09:20.360Z,13
2022-11-18T01:14:22.515Z,13
2022-11-18T01:19:20.479Z,13
2022-11-18T01:24:20.349Z,13
2022-11-18T01:29:20.345Z,13
2022-11-18T01:34:20.374Z,13
2022-11-18T01:39:20.118Z,13
2022-11-18T01:45:02.355Z,13
2022-11-18T01:49:20.522Z,13
2022-11-18T01:54:23.293Z,13
2022-11-18T01:59:22.440Z,13
2022-11-18T02:04:19.992Z,13
2022-11-18T02:09:20.203Z,12
2022-11-18T02:14:21.269Z,13
2022-11-18T02:19:31.764Z,13
2022-11-18T02:24:26.055Z,13
2022-11-18T02:30:11.873Z,13
2022-11-18T02:34:20.110Z,13
2022-11-18T02:39:22.127Z,13
2022-11-18T02:44:21.299Z,13
2022-11-18T02:50:14.355Z,13
2022-11-18T02:54:21.657Z,13
2022-11-18T02:59:20.247Z,13
2022-11-18T03:04:19.996Z,13
2022-11-18T03:09:23.860Z,13
2022-11-18T03:14:23.627Z,13
2022-11-18T03:19:23.432Z,14
2022-11-18T03:24:21.824Z,15
2022-11-18T03:29:24.749Z,15
2022-11-18T03:34:20.069Z,15
2022-11-18T03:39:20.093Z,15
2022-11-18T03:44:19.790Z,16
2022-11-18T03:49:23.589Z,15
2022-11-18T03:54:22.378Z,16
2022-11-18T03:59:20.383Z,16
2022-11-18T04:04:21.517Z,16
2022-11-18T04:09:20.398Z,17
2022-11-18T04:14:20.667Z,17
2022-11-18T04:19:20.668Z,17
2022-11-18T04:24:20.178Z,18
2022-11-18T04:29:20.063Z,18
2022-11-18T04:34:20.035Z,18
2022-11-18T04:39:20.419Z,19
2022-11-18T04:44:20.119Z,19
2022-11-18T04:49:20.478Z,19
2022-11-18T04:54:20.401Z,19
2022-11-18T04:59:20.953Z,19
2022-11-18T05:04:21.887Z,19
2022-11-18T05:09:20.310Z,19
2022-11-18T05:14:19.775Z,18
2022-11-18T05:19:20.651Z,18
2022-11-18T05:24:20.003Z,18
2022-11-18T05:29:20.095Z,18
2022-11-18T05:34:19.768Z,18
2022-11-18T05:42:11.325Z,17
2022-11-18T05:44:19.531Z,18
2022-11-18T05:49:20.328Z,18
2022-11-18T05:54:20.587Z,18
2022-11-18T05:59:20.027Z,17
2022-11-18T06:04:19.909Z,16
2022-11-18T06:09:21.656Z,16
2022-11-18T06:14:21.596Z,16
2022-11-18T06:19:20.548Z,17
2022-11-18T06:24:19.859Z,17
2022-11-18T06:29:24.512Z,17
2022-11-18T06:34:19.577Z,18
2022-11-18T06:39:19.982Z,18
2022-11-18T06:44:19.853Z,17
2022-11-18T06:49:20.513Z,17
2022-11-18T06:54:19.760Z,17
2022-11-18T06:59:19.839Z,17
2022-11-18T07:04:19.658Z,18
2022-11-18T07:09:20.268Z,18
2022-11-18T07:14:19.754Z,18
2022-11-18T07:19:20.158Z,18
2022-11-18T07:24:19.660Z,17
2022-11-18T07:29:19.878Z,17
2022-11-18T07:34:19.709Z,17
2022-11-18T07:39:20.247Z,17
2022-11-18T07:44:19.761Z,18
2022-11-18T07:49:20.208Z,18
2022-11-18T07:54:19.606Z,18
2022-11-18T07:59:20.690Z,17
2022-11-18T08:04:19.898Z,17
2022-11-18T08:09:20.000Z,17
2022-11-18T08:14:19.628Z,17
2022-11-18T08:19:20.497Z,17
2022-11-18T08:24:19.435Z,17
2022-11-18T08:29:24.680Z,17
2022-11-18T08:34:19.607Z,17
2022-11-18T09:49:44.572Z,16
2022-11-18T09:54:34.681Z,17
2022-11-18T09:59:33.976Z,17
2022-11-18T10:04:33.904Z,18
2022-11-18T10:10:00.547Z,19
2022-11-18T10:15:08.569Z,19
2022-11-18T10:20:00.513Z,19
2022-11-18T10:25:00.462Z,19
2022-11-18T10:30:00.946Z,19
2022-11-18T10:35:00.471Z,19
2022-11-18T10:40:00.444Z,18
2022-11-18T10:45:00.439Z,18
2022-11-18T10:50:00.460Z,18
2022-11-18T10:55:00.438Z,17
2022-11-18T11:00:00.585Z,17
2022-11-18T11:05:00.460Z,17
2022-11-18T11:10:00.482Z,17
2022-11-18T11:15:02.302Z,17
2022-11-18T11:20:00.376Z,17
2022-11-18T11:25:00.612Z,18
2022-11-18T11:30:00.366Z,17
2022-11-18T11:35:00.340Z,18
2022-11-18T11:40:00.341Z,18
2022-11-18T11:45:00.474Z,18
2022-11-18T11:50:00.454Z,18
2022-11-18T11:55:00.420Z,19
2022-11-18T12:00:00.438Z,20
2022-11-18T12:05:00.174Z,20
2022-11-18T12:10:06.852Z,20
2022-11-18T12:15:05.405Z,21
2022-11-18T12:20:00.599Z,22
2022-11-18T12:25:38.317Z,23
2022-11-18T12:30:00.452Z,24
2022-11-18T12:35:00.411Z,24
2022-11-18T12:40:00.096Z,24
2022-11-18T12:45:00.457Z,24
2022-11-18T12:50:00.416Z,24
2022-11-18T12:55:00.125Z,25
2022-11-18T13:00:00.268Z,25
2022-11-18T13:05:00.361Z,26
2022-11-18T13:10:00.442Z,26
2022-11-18T13:15:00.116Z,26
2022-11-18T13:20:00.345Z,27
2022-11-18T13:25:00.443Z,27
2022-11-18T13:30:00.027Z,28
2022-11-18T13:35:00.046Z,28
2022-11-18T13:40:00.360Z,28
2022-11-18T13:44:59.979Z,29
2022-11-18T13:50:04.615Z,29
2022-11-18T13:55:00.383Z,30
2022-11-18T14:00:00.134Z,31
2022-11-18T14:05:00.458Z,31
2022-11-18T14:10:01.384Z,31
2022-11-18T14:15:00.147Z,32
2022-11-18T14:20:00.493Z,32
2022-11-18T14:25:00.337Z,32
2022-11-18T14:30:00.053Z,32
2022-11-18T14:35:00.218Z,32
2022-11-18T14:40:00.385Z,31
2022-11-18T14:44:59.963Z,32
2022-11-18T14:50:00.037Z,33
2022-11-18T14:55:00.143Z,33
2022-11-18T14:59:59.943Z,33
2022-11-18T15:05:00.463Z,32
2022-11-18T15:09:59.967Z,32
2022-11-18T15:15:00.279Z,31
2022-11-18T15:20:00.347Z,31
2022-11-18T15:24:59.946Z,30
2022-11-18T15:30:01.777Z,30
2022-11-18T15:35:00.135Z,29
2022-11-18T15:40:00.338Z,30
2022-11-18T15:45:00.088Z,29
2022-11-18T15:50:00.048Z,29
2022-11-18T15:55:02.929Z,29
2022-11-18T15:59:59.884Z,29
2022-11-18T16:05:00.382Z,30
2022-11-18T16:09:59.877Z,29
2022-11-18T16:14:59.870Z,30
2022-11-18T16:20:00.037Z,30
2022-11-18T16:25:00.005Z,31
2022-11-18T16:30:00.013Z,31
2022-11-18T16:35:01.387Z,31
2022-11-18T16:40:00.127Z,31
2022-11-18T16:45:00.077Z,31
2022-11-18T16:50:00.191Z,31
2022-11-18T16:55:00.212Z,31
2022-11-18T17:00:00.226Z,32
2022-11-18T17:05:00.136Z,33
2022-11-18T17:10:00.008Z,33
2022-11-18T17:15:00.036Z,32
2022-11-18T17:19:59.893Z,34
2022-11-18T17:25:05.121Z,35
2022-11-18T17:29:59.989Z,35
2022-11-18T17:34:59.807Z,35
2022-11-18T17:39:59.813Z,36
2022-11-18T17:45:00.019Z,38
2022-11-18T17:50:00.042Z,41
2022-11-18T17:54:59.838Z,44
2022-11-18T18:00:00.032Z,46
2022-11-18T18:05:00.125Z,48
2022-11-18T18:10:00.003Z,49
2022-11-18T18:14:59.793Z,49
2022-11-18T18:19:59.781Z,49
2022-11-18T18:25:00.069Z,47
2022-11-18T18:29:59.996Z,46
2022-11-18T18:35:00.097Z,45
2022-11-18T18:40:00.113Z,43
2022-11-18T18:45:00.023Z,42
2022-11-18T18:50:00.047Z,41
2022-11-18T18:54:59.824Z,40
2022-11-18T19:00:00.019Z,39
2022-11-18T19:04:59.807Z,38
2022-11-18T19:09:59.706Z,38
2022-11-18T19:14:59.757Z,37
2022-11-18T19:19:59.898Z,36
2022-11-18T19:25:00.433Z,36
2022-11-18T19:29:59.799Z,37
2022-11-18T19:35:00.099Z,38
2022-11-18T19:39:59.747Z,39
2022-11-18T19:44:59.758Z,40
2022-11-18T19:49:59.893Z,41
2022-11-18T19:54:59.776Z,42
2022-11-18T19:59:59.939Z,42
2022-11-18T20:04:59.684Z,42
2022-11-18T20:09:59.821Z,43
2022-11-18T20:14:59.762Z,43
2022-11-18T20:19:59.912Z,42
2022-11-18T20:24:59.683Z,41
2022-11-18T20:29:59.906Z,40
2022-11-18T20:34:59.949Z,40
2022-11-18T20:39:59.849Z,40
2022-11-18T20:44:59.695Z,40
2022-11-18T20:49:59.910Z,40
2022-11-18T20:55:05.244Z,41
2022-11-18T20:59:59.682Z,42
2022-11-18T21:04:59.695Z,44
2022-11-18T21:09:59.839Z,46
2022-11-18T21:15:00.113Z,46
2022-11-18T21:19:59.889Z,48
2022-11-18T21:24:59.984Z,48
2022-11-18T21:29:59.767Z,47
2022-11-18T21:34:59.695Z,48
2022-11-18T21:39:59.851Z,47
2022-11-18T21:44:59.711Z,48
2022-11-18T21:49:59.566Z,48
2022-11-18T21:55:00.393Z,49
2022-11-18T21:59:59.634Z,47
2022-11-18T22:04:59.621Z,48
2022-11-18T22:09:59.587Z,47
2022-11-18T22:14:59.628Z,47
2022-11-18T22:19:59.871Z,47
2022-11-18T22:24:59.647Z,46
2022-11-18T22:29:59.848Z,46
2022-11-18T22:34:59.913Z,46
2022-11-18T22:39:59.808Z,45
2022-11-18T22:44:59.615Z,46
2022-11-18T22:49:59.595Z,46
2022-11-18T22:54:59.569Z,47
2022-11-18T22:59:59.706Z,45
2022-11-18T23:04:59.571Z,46
2022-11-18T23:09:59.701Z,46
2022-11-18T23:14:59.699Z,46
2022-11-18T23:19:59.866Z,46
2022-11-18T23:24:59.702Z,45
2022-11-18T23:29:59.493Z,47
2022-11-18T23:34:59.483Z,48
2022-11-18T23:39:59.683Z,49
2022-11-18T23:45:04.877Z,49
2022-11-18T23:49:59.757Z,48
2022-11-18T23:54:59.763Z,47
2022-11-18T23:59:59.473Z,48
